createdAt,value
2018-09-02T00:01:11.256Z,9.8
2018-09-02T00:11:25.860Z,8.1
2018-09-02T00:21:40.328Z,7
2018-09-02T00:31:55.629Z,3.9
2018-09-02T00:42:10.363Z,2.6
2018-09-02T00:52:25.064Z,0.8
2018-09-02T01:02:40.617Z,1
2018-09-02T01:12:55.526Z,1.9
2018-09-02T01:23:10.012Z,1.8
2018-09-02T01:33:23.818Z,1.9
2018-09-02T01:43:38.522Z,1.5
2018-09-02T01:53:52.734Z,1.7
2018-09-02T02:04:07.110Z,1.1
2018-09-02T02:14:21.470Z,0.6
2018-09-02T02:24:36.241Z,0.6
2018-09-02T02:34:51.035Z,0.4
2018-09-02T02:45:05.398Z,0.7
2018-09-02T02:55:20.110Z,0.6
2018-09-02T03:05:33.819Z,0.6
2018-09-02T03:15:49.543Z,0.2
2018-09-02T03:26:04.304Z,0
2018-09-02T03:36:18.188Z,0
2018-09-02T03:46:32.876Z,0
2018-09-02T03:56:48.131Z,0
2018-09-02T04:07:02.518Z,0
2018-09-02T04:17:17.879Z,0
2018-09-02T04:27:33.553Z,0
2018-09-02T04:37:47.927Z,0
2018-09-02T04:48:03.407Z,0
2018-09-02T04:58:17.146Z,0
2018-09-02T05:08:31.272Z,0
2018-09-02T05:18:46.437Z,0
2018-09-02T05:29:00.777Z,0
2018-09-02T05:39:14.526Z,0
2018-09-02T05:49:29.373Z,0
2018-09-02T05:59:44.257Z,0
2018-09-02T06:09:57.816Z,0
2018-09-02T06:20:13.380Z,0
2018-09-02T06:30:28.527Z,0
2018-09-02T06:40:43.488Z,0
2018-09-02T06:50:58.307Z,0
2018-09-02T07:01:13.201Z,0
2018-09-02T07:11:27.599Z,0
2018-09-02T07:21:42.340Z,0
2018-09-02T07:31:57.724Z,20.8
2018-09-02T07:42:11.734Z,72.3
2018-09-02T07:52:27.286Z,97.5
2018-09-02T08:02:42.830Z,100
2018-09-02T08:12:58.586Z,100
2018-09-02T08:23:13.150Z,99.8
2018-09-02T08:33:27.173Z,99
2018-09-02T08:43:42.163Z,94.2
2018-09-02T08:53:56.782Z,93
2018-09-02T09:04:12.067Z,91.7
2018-09-02T09:14:27.378Z,87.3
2018-09-02T09:24:42.296Z,82.9
2018-09-02T09:34:57.648Z,81.9
2018-09-02T09:45:12.871Z,79.9
2018-09-02T09:55:27.869Z,77.5
2018-09-02T10:05:42.880Z,76.5
2018-09-02T10:15:57.908Z,74.4
2018-09-02T10:26:13.074Z,72.2
2018-09-02T10:36:28.581Z,71.4
2018-09-02T10:46:43.196Z,71.3
2018-09-02T10:56:58.200Z,70.3
2018-09-02T11:07:12.683Z,69.5
2018-09-02T11:17:27.841Z,68.5
2018-09-02T11:27:43.061Z,67.7
2018-09-02T11:37:57.704Z,67.8
2018-09-02T11:48:12.771Z,66.3
2018-09-02T11:58:27.928Z,66
2018-09-02T12:08:42.342Z,65.1
2018-09-02T12:18:56.742Z,65.1
2018-09-02T12:29:11.933Z,64.5
2018-09-02T12:39:27.621Z,64.3
2018-09-02T12:49:43.079Z,63.8
2018-09-02T12:59:58.907Z,64.6
2018-09-02T13:10:13.096Z,64
2018-09-02T13:20:27.311Z,63.4
2018-09-02T13:30:42.582Z,62.9
2018-09-02T13:40:58.063Z,62.5
2018-09-02T13:51:12.589Z,61.6
2018-09-02T14:01:26.884Z,60.9
2018-09-02T14:11:41.092Z,60.6
2018-09-02T14:21:55.157Z,60.3
2018-09-02T14:32:10.859Z,59.8
2018-09-02T14:42:25.857Z,59.5
2018-09-02T14:52:41.500Z,59.4
2018-09-02T15:02:55.786Z,59.1
2018-09-02T15:13:09.942Z,58.7
2018-09-02T15:23:25.382Z,59.2
2018-09-02T15:33:40.082Z,58.5
2018-09-02T15:43:55.013Z,57.5
2018-09-02T15:54:09.977Z,60
2018-09-02T16:04:25.341Z,62.6
2018-09-02T16:14:39.227Z,63.7
2018-09-02T16:24:54.137Z,64.2
2018-09-02T16:35:08.090Z,64.4
2018-09-02T16:45:22.085Z,64.6
2018-09-02T16:55:37.179Z,65.9
2018-09-02T17:05:51.597Z,66.7
2018-09-02T17:16:06.670Z,67.7
2018-09-02T17:26:21.957Z,68
2018-09-02T17:36:36.570Z,68.3
2018-09-02T17:46:50.927Z,69.3
2018-09-02T17:57:04.732Z,69.3
2018-09-02T18:07:19.504Z,69.6
2018-09-02T18:17:34.502Z,69.8
2018-09-02T18:27:48.292Z,70.7
2018-09-02T18:38:03.757Z,72.3
2018-09-02T18:48:17.550Z,73.1
2018-09-02T18:58:31.630Z,74.4
2018-09-02T19:19:00.533Z,75.8
2018-09-02T19:29:16.185Z,77.7
2018-09-02T19:39:30.782Z,78.3
2018-09-02T19:49:44.509Z,79.2
2018-09-02T19:59:58.383Z,80
2018-09-02T20:10:13.859Z,80.1
2018-09-02T20:20:28.998Z,80.7
2018-09-02T20:30:44.664Z,80.5
2018-09-02T20:40:59.920Z,81
2018-09-02T20:51:14.620Z,81.2
2018-09-02T21:01:29.741Z,81.3
2018-09-02T21:11:45.404Z,80.8
2018-09-02T21:22:00.382Z,80.9
2018-09-02T21:32:14.496Z,81.4
2018-09-02T21:42:28.411Z,82
2018-09-02T21:52:44.079Z,82.4
2018-09-02T22:02:58.433Z,81.4
2018-09-02T22:13:13.105Z,81.1
2018-09-02T22:23:27.466Z,82.1
2018-09-02T22:33:42.649Z,81.8
2018-09-02T22:43:57.738Z,81.5
2018-09-02T22:54:12.287Z,81.1
2018-09-02T23:04:26.642Z,80.8
2018-09-02T23:14:42.197Z,84.1
2018-09-02T23:24:56.463Z,81.5
2018-09-02T23:35:10.818Z,80.3
2018-09-02T23:45:26.142Z,82.3
2018-09-02T23:55:41.455Z,82
